createdAt,value
2022-10-14T00:00:08.121Z,11.8
2022-10-14T00:05:08.008Z,11.8
2022-10-14T00:10:07.726Z,11.3
2022-10-14T00:15:08.407Z,11.3
2022-10-14T00:20:08.094Z,11.1
2022-10-14T00:25:07.878Z,11.1
2022-10-14T00:30:08.571Z,11.0
2022-10-14T00:35:08.307Z,11.0
2022-10-14T00:40:08.023Z,10.8
2022-10-14T00:45:07.703Z,10.8
2022-10-14T00:50:08.377Z,10.6
2022-10-14T00:55:13.707Z,10.6
2022-10-14T01:00:11.973Z,10.8
2022-10-14T01:05:07.672Z,10.8
2022-10-14T01:10:17.017Z,10.8
2022-10-14T01:15:07.773Z,10.8
2022-10-14T01:20:08.564Z,10.8
2022-10-14T01:25:08.285Z,10.8
2022-10-14T01:30:08.010Z,10.6
2022-10-14T01:35:12.861Z,10.6
2022-10-14T01:40:08.577Z,10.8
2022-10-14T01:45:08.291Z,10.8
2022-10-14T01:50:08.007Z,10.8
2022-10-14T01:55:07.701Z,10.8
2022-10-14T02:00:08.419Z,10.8
2022-10-14T02:05:08.118Z,10.8
2022-10-14T02:10:07.843Z,11.1
2022-10-14T02:15:08.558Z,11.1
2022-10-14T02:20:08.233Z,11.1
2022-10-14T02:25:07.957Z,11.1
2022-10-14T02:30:07.672Z,10.8
2022-10-14T02:35:08.413Z,10.8
2022-10-14T02:40:08.143Z,11.1
2022-10-14T02:45:07.833Z,11.1
2022-10-14T02:50:08.545Z,11.3
2022-10-14T02:55:08.267Z,11.3
2022-10-14T03:00:07.967Z,11.6
2022-10-14T03:05:07.662Z,11.6
2022-10-14T03:10:08.359Z,11.6
2022-10-14T03:15:08.073Z,11.8
2022-10-14T03:20:07.791Z,11.8
2022-10-14T03:25:08.488Z,11.6
2022-10-14T03:30:08.190Z,11.3
2022-10-14T03:35:07.882Z,11.3
2022-10-14T03:40:08.574Z,11.6
2022-10-14T03:45:08.264Z,11.8
2022-10-14T03:50:07.995Z,11.8
2022-10-14T03:55:07.689Z,11.8
2022-10-14T04:00:08.423Z,12.1
2022-10-14T04:05:02.225Z,12.1
2022-10-14T04:10:02.064Z,12.1
2022-10-14T04:15:01.822Z,12.0
2022-10-14T04:20:02.675Z,12.0
2022-10-14T04:25:02.456Z,12.0
2022-10-14T04:30:02.226Z,12.1
2022-10-14T04:35:02.145Z,12.0
2022-10-14T04:40:01.965Z,11.8
2022-10-14T04:45:01.806Z,11.8
2022-10-14T04:50:02.658Z,11.8
2022-10-14T04:55:02.597Z,12.0
2022-10-14T05:00:02.517Z,12.0
2022-10-14T05:05:02.422Z,12.1
2022-10-14T05:10:02.383Z,12.1
2022-10-14T05:15:02.283Z,12.1
2022-10-14T05:20:02.240Z,12.1
2022-10-14T05:25:02.161Z,12.1
2022-10-14T05:30:02.097Z,12.1
2022-10-14T05:35:01.884Z,12.1
2022-10-14T05:40:02.866Z,12.3
2022-10-14T05:45:02.701Z,12.3
2022-10-14T05:50:02.515Z,12.5
2022-10-14T05:55:02.347Z,12.5
2022-10-14T06:00:02.195Z,12.3
2022-10-14T06:05:02.011Z,12.5
2022-10-14T06:10:02.061Z,12.6
2022-10-14T06:15:01.887Z,12.6
2022-10-14T06:20:02.740Z,12.6
2022-10-14T06:25:04.504Z,12.8
2022-10-14T06:30:02.501Z,12.8
2022-10-14T06:35:02.307Z,12.8
2022-10-14T06:40:02.237Z,12.8
2022-10-14T06:45:01.974Z,13.1
2022-10-14T06:50:01.799Z,13.1
2022-10-14T06:55:02.744Z,13.1
2022-10-14T07:00:02.607Z,13.1
2022-10-14T07:05:02.416Z,13.1
2022-10-14T07:10:02.232Z,13.1
2022-10-14T07:15:02.077Z,13.1
2022-10-14T07:20:01.935Z,13.3
2022-10-14T07:25:02.756Z,13.3
2022-10-14T07:30:02.608Z,13.3
2022-10-14T07:35:02.400Z,13.1
2022-10-14T07:40:02.241Z,13.1
2022-10-14T07:45:02.161Z,13.1
2022-10-14T07:50:02.125Z,13.1
2022-10-14T07:55:02.136Z,13.1
2022-10-14T08:00:02.043Z,13.1
2022-10-14T08:05:25.529Z,13.1
2022-10-14T08:10:02.155Z,13.1
2022-10-14T08:15:01.963Z,13.1
2022-10-14T08:20:01.776Z,13.1
2022-10-14T08:25:02.548Z,13.1
2022-10-14T08:30:04.980Z,13.1
2022-10-14T08:35:02.625Z,13.1
2022-10-14T08:40:02.472Z,13.5
2022-10-14T08:45:02.270Z,13.5
2022-10-14T08:50:02.110Z,13.6
2022-10-14T08:55:01.966Z,13.6
2022-10-14T09:00:01.771Z,14.0
2022-10-14T09:05:02.607Z,14.0
2022-10-14T09:10:02.436Z,14.0
2022-10-14T09:15:02.277Z,14.0
2022-10-14T09:20:02.094Z,14.1
2022-10-14T09:25:01.881Z,14.1
2022-10-14T09:30:02.760Z,14.3
2022-10-14T09:35:02.697Z,14.3
2022-10-14T09:40:02.558Z,14.5
2022-10-14T09:45:02.434Z,14.5
2022-10-14T09:50:02.271Z,15.0
2022-10-14T09:55:02.197Z,15.0
2022-10-14T10:00:02.041Z,14.6
2022-10-14T10:05:01.901Z,14.6
2022-10-14T10:10:02.821Z,14.6
2022-10-14T10:15:02.629Z,14.6
2022-10-14T10:20:02.531Z,14.6
2022-10-14T10:25:02.403Z,14.6
2022-10-14T10:30:02.227Z,14.8
2022-10-14T10:35:02.301Z,15.0
2022-10-14T10:40:02.225Z,15.0
2022-10-14T10:45:02.474Z,15.1
2022-10-14T10:50:02.402Z,15.1
2022-10-14T10:55:02.296Z,15.0
2022-10-14T11:00:02.168Z,14.8
2022-10-14T11:05:02.818Z,14.8
2022-10-14T11:10:02.614Z,14.6
2022-10-14T11:15:02.421Z,14.8
2022-10-14T11:20:02.282Z,15.1
2022-10-14T11:25:02.177Z,15.1
2022-10-14T11:30:02.022Z,15.1
2022-10-14T11:35:01.838Z,14.8
2022-10-14T11:40:02.575Z,14.6
2022-10-14T11:45:02.374Z,14.6
2022-10-14T11:50:02.167Z,14.6
2022-10-14T11:55:02.012Z,14.6
2022-10-14T12:00:01.810Z,14.8
2022-10-14T12:05:02.705Z,15.0
2022-10-14T12:10:02.810Z,15.0
2022-10-14T12:15:12.607Z,14.8
2022-10-14T12:20:02.447Z,14.8
2022-10-14T12:25:02.313Z,15.0
2022-10-14T12:30:02.226Z,15.0
2022-10-14T12:35:02.074Z,15.1
2022-10-14T12:40:01.861Z,15.1
2022-10-14T12:45:02.727Z,15.0
2022-10-14T12:50:02.544Z,15.1
2022-10-14T12:55:02.506Z,15.1
2022-10-14T13:00:02.406Z,15.1
2022-10-14T13:05:02.415Z,15.1
2022-10-14T13:10:02.385Z,15.1
2022-10-14T13:15:02.312Z,15.3
2022-10-14T13:20:02.226Z,15.1
2022-10-14T13:25:02.071Z,15.1
2022-10-14T13:30:02.026Z,15.3
2022-10-14T13:35:11.927Z,15.3
2022-10-14T13:40:02.775Z,15.3
2022-10-14T13:45:02.651Z,15.1
2022-10-14T13:50:02.431Z,15.1
2022-10-14T13:55:02.364Z,14.8
2022-10-14T14:00:38.995Z,14.8
2022-10-14T14:05:02.758Z,15.0
2022-10-14T14:10:02.710Z,15.1
2022-10-14T14:15:02.516Z,14.8
2022-10-14T14:20:02.413Z,14.8
2022-10-14T14:25:12.608Z,14.8
2022-10-14T14:30:02.619Z,14.8
2022-10-14T14:35:02.409Z,14.8
2022-10-14T14:40:02.254Z,14.8
2022-10-14T14:45:02.080Z,14.8
2022-10-14T14:50:25.546Z,15.0
2022-10-14T14:55:02.608Z,15.0
2022-10-14T15:00:02.476Z,14.6
2022-10-14T15:05:02.334Z,14.5
2022-10-14T15:10:02.152Z,14.5
2022-10-14T15:15:03.877Z,14.5
2022-10-14T15:20:02.793Z,14.3
2022-10-14T15:25:02.668Z,14.5
2022-10-14T15:30:02.499Z,14.5
2022-10-14T15:35:02.320Z,14.5
2022-10-14T15:40:02.174Z,14.5
2022-10-14T15:45:02.126Z,14.5
2022-10-14T15:50:02.133Z,14.3
2022-10-14T15:55:02.057Z,14.6
2022-10-14T16:00:02.283Z,14.3
2022-10-14T16:05:20.330Z,14.5
2022-10-14T16:10:02.805Z,14.3
2022-10-14T16:15:02.834Z,14.3
2022-10-14T16:20:02.826Z,14.5
2022-10-14T16:25:02.647Z,14.5
2022-10-14T16:30:02.640Z,14.3
2022-10-14T16:35:02.535Z,14.3
2022-10-14T16:40:02.487Z,14.3
2022-10-14T16:45:02.731Z,14.1
2022-10-14T16:50:02.555Z,14.3
2022-10-14T16:55:02.348Z,14.0
2022-10-14T17:00:02.305Z,14.1
2022-10-14T17:05:02.254Z,14.1
2022-10-14T17:10:02.163Z,14.1
2022-10-14T17:15:01.978Z,14.1
2022-10-14T17:20:01.841Z,14.0
2022-10-14T17:25:02.699Z,14.0
2022-10-14T17:30:02.466Z,13.8
2022-10-14T17:35:02.296Z,13.8
2022-10-14T17:40:02.197Z,13.8
2022-10-14T17:45:02.007Z,13.8
2022-10-14T17:50:01.942Z,13.6
2022-10-14T17:55:02.740Z,13.6
2022-10-14T18:00:05.276Z,13.6
2022-10-14T18:05:02.114Z,13.6
2022-10-14T18:10:01.941Z,13.6
2022-10-14T18:15:02.750Z,13.6
2022-10-14T18:20:04.534Z,13.5
2022-10-14T18:25:02.435Z,13.5
2022-10-14T18:30:02.428Z,13.6
2022-10-14T18:35:02.373Z,13.6
2022-10-14T18:40:02.316Z,13.5
2022-10-14T18:45:02.293Z,13.5
2022-10-14T18:55:02.157Z,13.3
2022-10-14T19:00:02.131Z,13.3
2022-10-14T19:05:02.028Z,13.3
2022-10-14T19:10:01.807Z,13.1
2022-10-14T19:15:02.523Z,13.1
2022-10-14T19:20:02.487Z,12.8
2022-10-14T19:25:02.312Z,12.8
2022-10-14T19:30:02.333Z,13.1
2022-10-14T19:35:02.177Z,13.1
2022-10-14T19:40:01.929Z,13.1
2022-10-14T19:45:02.768Z,13.1
2022-10-14T19:50:02.631Z,13.3
2022-10-14T19:55:02.646Z,13.3
2022-10-14T20:00:02.607Z,12.8
2022-10-14T20:05:02.471Z,12.8
2022-10-14T20:10:03.010Z,12.8
2022-10-14T20:15:02.046Z,12.8
2022-10-14T20:20:01.852Z,12.8
2022-10-14T20:25:02.606Z,12.8
2022-10-14T20:30:02.476Z,12.8
2022-10-14T20:35:15.356Z,12.8
2022-10-14T20:40:08.075Z,12.5
2022-10-14T20:45:07.809Z,12.5
2022-10-14T20:50:08.552Z,12.1
2022-10-14T20:55:08.283Z,12.1
2022-10-14T21:00:07.978Z,12.1
2022-10-14T21:05:07.699Z,12.1
2022-10-14T21:10:08.401Z,12.1
2022-10-14T21:15:08.143Z,12.1
2022-10-14T21:20:07.853Z,12.1
2022-10-14T21:25:08.572Z,12.1
2022-10-14T21:30:08.325Z,12.3
2022-10-14T21:35:08.223Z,12.3
2022-10-14T21:40:07.928Z,12.3
2022-10-14T21:45:08.647Z,12.3
2022-10-14T21:50:08.357Z,12.5
2022-10-14T21:55:08.071Z,12.5
2022-10-14T22:00:07.866Z,12.1
2022-10-14T22:05:08.596Z,12.1
2022-10-14T22:10:08.311Z,12.1
2022-10-14T22:15:08.014Z,12.1
2022-10-14T22:20:07.742Z,12.1
2022-10-14T22:25:08.422Z,12.1
2022-10-14T22:30:08.105Z,12.5
2022-10-14T22:35:07.818Z,12.5
2022-10-14T22:40:08.559Z,12.1
2022-10-14T22:45:08.248Z,12.1
2022-10-14T22:50:07.944Z,12.3
2022-10-14T22:55:08.651Z,12.3
2022-10-14T23:01:02.147Z,12.1
2022-10-14T23:05:07.856Z,12.1
2022-10-14T23:10:08.337Z,12.1
2022-10-14T23:15:08.052Z,12.1
2022-10-14T23:20:07.767Z,12.1
2022-10-14T23:25:08.482Z,12.1
2022-10-14T23:30:08.160Z,12.0
2022-10-14T23:35:07.892Z,12.0
2022-10-14T23:40:08.661Z,12.0
2022-10-14T23:45:08.404Z,12.0
2022-10-14T23:50:08.167Z,11.8
2022-10-14T23:55:07.848Z,11.8
